createdAt,value
2019-05-05T00:00:05.898Z,6.40
2019-05-05T00:02:45.608Z,7.37
2019-05-05T00:05:26.717Z,6.70
2019-05-05T00:07:54.183Z,7.17
2019-05-05T00:10:31.735Z,7.15
2019-05-05T00:13:10.109Z,6.67
2019-05-05T00:15:55.231Z,6.50
2019-05-05T00:18:25.356Z,6.70
2019-05-05T00:20:52.444Z,5.78
2019-05-05T00:23:19.508Z,6.72
2019-05-05T00:25:46.568Z,4.80
2019-05-05T00:28:14.312Z,6.92
2019-05-05T00:30:41.611Z,5.58
2019-05-05T00:33:08.684Z,7.30
2019-05-05T00:35:36.160Z,7.08
2019-05-05T00:38:05.056Z,8.03
2019-05-05T00:40:32.498Z,5.60
2019-05-05T00:42:59.586Z,5.90
2019-05-05T00:45:28.211Z,7.03
2019-05-05T00:48:07.839Z,5.87
2019-05-05T00:50:34.909Z,6.58
2019-05-05T00:53:01.979Z,6.05
2019-05-05T00:55:29.043Z,6.28
2019-05-05T00:57:56.226Z,7.25
2019-05-05T01:00:44.254Z,7.15
2019-05-05T01:03:12.372Z,6.25
2019-05-05T01:05:55.293Z,9.20
2019-05-05T01:08:25.315Z,9.38
2019-05-05T01:10:52.391Z,5.92
2019-05-05T01:13:19.551Z,8.13
2019-05-05T01:15:46.816Z,8.05
2019-05-05T01:18:15.267Z,7.67
2019-05-05T01:20:44.702Z,5.95
2019-05-05T01:23:11.592Z,6.05
2019-05-05T01:25:38.660Z,6.58
2019-05-05T01:28:06.116Z,8.60
2019-05-05T01:30:35.204Z,8.70
2019-05-05T01:33:09.789Z,9.28
2019-05-05T01:35:36.863Z,6.87
2019-05-05T01:38:09.683Z,6.47
2019-05-05T01:40:56.415Z,7.53
2019-05-05T01:43:25.333Z,6.67
2019-05-05T01:45:54.565Z,5.75
2019-05-05T01:48:21.700Z,6.42
2019-05-05T01:50:48.855Z,9.20
2019-05-05T01:53:15.923Z,5.75
2019-05-05T01:55:45.050Z,6.95
2019-05-05T01:58:15.157Z,7.28
2019-05-05T02:00:42.279Z,6.33
2019-05-05T02:03:09.636Z,7.72
2019-05-05T02:05:36.690Z,8.68
2019-05-05T02:08:04.894Z,6.62
2019-05-05T02:10:34.689Z,8.58
2019-05-05T02:13:01.456Z,8.30
2019-05-05T02:15:28.616Z,5.80
2019-05-05T02:17:55.795Z,8.23
2019-05-05T02:20:54.894Z,9.73
2019-05-05T02:23:22.149Z,9.60
2019-05-05T02:25:49.423Z,6.90
2019-05-05T02:28:16.699Z,8.90
2019-05-05T02:30:57.282Z,7.50
2019-05-05T02:33:26.162Z,8.33
2019-05-05T02:35:55.713Z,8.23
2019-05-05T02:38:22.675Z,8.30
2019-05-05T02:40:51.254Z,6.50
2019-05-05T02:43:18.521Z,9.10
2019-05-05T02:46:07.306Z,11.00
2019-05-05T02:48:35.616Z,8.05
2019-05-05T02:51:06.667Z,8.13
2019-05-05T02:53:45.224Z,9.70
2019-05-05T02:56:19.770Z,9.80
2019-05-05T02:58:48.922Z,7.90
2019-05-05T03:01:45.993Z,10.80
2019-05-05T03:04:14.230Z,8.95
2019-05-05T03:06:46.510Z,8.98
2019-05-05T03:09:14.817Z,11.22
2019-05-05T03:11:44.920Z,10.98
2019-05-05T03:14:14.704Z,9.35
2019-05-05T03:16:43.523Z,9.58
2019-05-05T03:19:11.139Z,10.32
2019-05-05T03:21:39.106Z,9.28
2019-05-05T03:24:06.577Z,12.55
2019-05-05T03:26:34.763Z,10.10
2019-05-05T03:29:04.745Z,9.85
2019-05-05T03:31:35.180Z,7.62
2019-05-05T03:34:05.553Z,7.95
2019-05-05T03:36:33.900Z,7.85
2019-05-05T03:39:01.695Z,8.10
2019-05-05T03:41:36.763Z,9.23
2019-05-05T03:44:15.619Z,11.05
2019-05-05T03:46:43.833Z,12.93
2019-05-05T03:49:13.986Z,8.23
2019-05-05T03:51:43.732Z,10.03
2019-05-05T03:54:10.610Z,10.40
2019-05-05T03:56:37.856Z,9.28
2019-05-05T03:59:05.071Z,12.20
2019-05-05T04:01:37.361Z,9.95
2019-05-05T04:04:24.429Z,9.65
2019-05-05T04:06:54.020Z,10.08
2019-05-05T04:09:24.114Z,11.12
2019-05-05T04:11:51.064Z,10.70
2019-05-05T04:14:20.239Z,13.25
2019-05-05T04:17:07.424Z,15.90
2019-05-05T04:19:39.923Z,11.12
2019-05-05T04:22:08.896Z,13.10
2019-05-05T04:24:37.851Z,13.28
2019-05-05T04:27:06.820Z,12.28
2019-05-05T04:29:35.789Z,10.00
2019-05-05T04:32:04.660Z,13.03
2019-05-05T04:34:32.115Z,12.18
2019-05-05T04:36:59.228Z,13.78
2019-05-05T04:39:26.300Z,7.75
2019-05-05T04:41:54.575Z,12.95
2019-05-05T04:44:23.532Z,11.65
2019-05-05T04:46:54.602Z,11.28
2019-05-05T04:49:28.317Z,10.05
2019-05-05T04:51:56.625Z,9.95
2019-05-05T04:54:33.467Z,11.00
2019-05-05T04:57:00.620Z,11.22
2019-05-05T04:59:27.671Z,12.63
2019-05-05T05:01:57.692Z,12.50
2019-05-05T05:04:33.844Z,12.85
2019-05-05T05:07:01.019Z,9.20
2019-05-05T05:09:28.097Z,14.78
2019-05-05T05:11:55.250Z,11.33
2019-05-05T05:14:24.554Z,11.73
2019-05-05T05:16:54.133Z,13.13
2019-05-05T05:19:21.571Z,12.67
2019-05-05T05:21:59.378Z,13.17
2019-05-05T05:24:17.703Z,13.30
2019-05-05T05:26:44.771Z,13.20
2019-05-05T05:29:11.927Z,13.60
2019-05-05T05:31:39.311Z,15.33
2019-05-05T05:34:06.379Z,12.53
2019-05-05T05:36:33.886Z,14.37
2019-05-05T05:39:07.596Z,15.30
2019-05-05T05:41:44.795Z,12.23
2019-05-05T05:44:27.983Z,12.00
2019-05-05T05:47:03.678Z,11.30
2019-05-05T05:49:37.260Z,11.73
2019-05-05T05:52:13.376Z,15.60
2019-05-05T05:54:34.049Z,13.97
2019-05-05T05:57:01.399Z,13.23
2019-05-05T05:59:28.466Z,14.87
2019-05-05T06:02:09.216Z,16.27
2019-05-05T06:04:24.491Z,12.80
2019-05-05T06:06:51.548Z,14.67
2019-05-05T06:09:18.596Z,12.57
2019-05-05T06:11:45.655Z,14.87
2019-05-05T06:14:14.422Z,15.67
2019-05-05T06:16:42.072Z,13.90
2019-05-05T06:19:10.344Z,13.80
2019-05-05T06:21:37.612Z,19.50
2019-05-05T06:24:04.695Z,14.77
2019-05-05T06:26:33.727Z,17.27
2019-05-05T06:29:00.699Z,17.33
2019-05-05T06:31:27.785Z,18.37
2019-05-05T06:33:54.847Z,15.07
2019-05-05T06:36:23.443Z,16.37
2019-05-05T06:38:50.592Z,12.83
2019-05-05T06:41:39.324Z,15.03
2019-05-05T06:44:24.833Z,16.00
2019-05-05T06:47:04.683Z,16.67
2019-05-05T06:49:34.378Z,16.63
2019-05-05T06:52:03.874Z,17.20
2019-05-05T06:54:30.522Z,18.43
2019-05-05T06:56:57.591Z,21.37
2019-05-05T06:59:24.651Z,14.33
2019-05-05T07:01:53.465Z,15.93
2019-05-05T07:04:20.771Z,18.92
2019-05-05T07:06:54.164Z,21.53
2019-05-05T07:09:16.791Z,22.43
2019-05-05T07:11:43.852Z,14.10
2019-05-05T07:14:10.931Z,15.87
2019-05-05T07:16:38.092Z,17.30
2019-05-05T07:19:05.139Z,17.80
2019-05-05T07:21:34.153Z,19.37
2019-05-05T07:24:01.190Z,13.57
2019-05-05T07:26:28.339Z,16.50
2019-05-05T07:28:55.421Z,19.67
2019-05-05T07:31:23.843Z,14.70
2019-05-05T07:33:51.157Z,16.07
2019-05-05T07:36:34.499Z,17.37
2019-05-05T07:39:03.847Z,15.53
2019-05-05T07:41:34.079Z,16.07
2019-05-05T07:44:04.644Z,17.80
2019-05-05T07:46:31.800Z,13.07
2019-05-05T07:48:58.864Z,14.53
2019-05-05T07:51:26.340Z,17.83
2019-05-05T07:53:54.714Z,14.50
2019-05-05T07:56:23.751Z,17.27
2019-05-05T07:58:51.128Z,14.57
2019-05-05T08:01:18.312Z,15.07
2019-05-05T08:03:46.791Z,17.50
2019-05-05T08:06:14.609Z,14.43
2019-05-05T08:08:44.129Z,13.70
2019-05-05T08:11:11.484Z,12.40
2019-05-05T08:13:38.664Z,16.63
2019-05-05T08:16:14.090Z,19.77
2019-05-05T08:19:06.938Z,16.93
2019-05-05T08:21:35.519Z,14.30
2019-05-05T08:24:21.596Z,17.33
2019-05-05T08:26:56.462Z,11.30
2019-05-05T08:29:34.555Z,12.43
2019-05-05T08:32:16.472Z,15.97
2019-05-05T08:34:56.589Z,16.77
2019-05-05T08:37:14.509Z,14.03
2019-05-05T08:39:41.732Z,13.97
2019-05-05T08:42:08.893Z,14.87
2019-05-05T08:44:35.963Z,16.67
2019-05-05T08:47:04.427Z,11.43
2019-05-05T08:49:32.071Z,8.67
2019-05-05T08:51:59.135Z,10.20
2019-05-05T08:54:26.203Z,8.20
2019-05-05T08:56:54.969Z,8.73
2019-05-05T08:59:24.234Z,8.30
2019-05-05T09:01:54.007Z,9.33
2019-05-05T09:04:21.099Z,11.17
2019-05-05T09:06:48.182Z,9.97
2019-05-05T09:09:15.258Z,12.37
2019-05-05T09:11:43.803Z,10.00
2019-05-05T09:14:11.185Z,12.87
2019-05-05T09:16:38.591Z,11.57
2019-05-05T09:19:10.507Z,9.83
2019-05-05T09:21:37.584Z,10.83
2019-05-05T09:24:19.608Z,11.80
2019-05-05T09:26:57.316Z,9.47
2019-05-05T09:29:27.660Z,8.97
2019-05-05T09:31:54.921Z,11.47
2019-05-05T09:34:23.960Z,10.97
2019-05-05T09:36:51.288Z,9.23
2019-05-05T09:39:18.343Z,10.53
2019-05-05T09:41:45.540Z,12.60
2019-05-05T09:44:13.595Z,10.20
2019-05-05T09:46:40.785Z,9.10
2019-05-05T09:49:07.845Z,13.83
2019-05-05T09:51:35.018Z,9.67
2019-05-05T09:54:11.862Z,7.03
2019-05-05T09:56:31.493Z,10.30
2019-05-05T09:58:58.565Z,13.93
2019-05-05T10:01:25.629Z,14.83
2019-05-05T10:03:55.871Z,12.70
2019-05-05T10:06:24.409Z,11.80
2019-05-05T10:08:53.731Z,11.83
2019-05-05T10:11:20.699Z,13.53
2019-05-05T10:13:47.747Z,12.63
2019-05-05T10:16:14.818Z,9.07
2019-05-05T10:18:41.883Z,8.87
2019-05-05T10:21:08.949Z,11.63
2019-05-05T10:23:38.843Z,8.57
2019-05-05T10:26:08.235Z,10.57
2019-05-05T10:28:35.325Z,10.83
2019-05-05T10:31:04.596Z,11.73
2019-05-05T10:33:31.995Z,13.13
2019-05-05T10:35:59.045Z,9.23
2019-05-05T10:38:26.243Z,9.77
2019-05-05T10:40:53.757Z,11.27
2019-05-05T10:43:21.096Z,10.77
2019-05-05T10:45:48.156Z,11.70
2019-05-05T10:48:15.214Z,10.73
2019-05-05T10:50:44.293Z,10.77
2019-05-05T10:53:13.493Z,11.77
2019-05-05T10:55:40.200Z,11.37
2019-05-05T10:58:07.543Z,9.73
2019-05-05T11:00:46.975Z,10.77
2019-05-05T11:03:15.339Z,18.23
2019-05-05T11:05:45.021Z,13.63
2019-05-05T11:08:13.864Z,11.17
2019-05-05T11:10:41.167Z,16.93
2019-05-05T11:13:08.341Z,12.47
2019-05-05T11:15:35.503Z,12.73
2019-05-05T11:18:04.004Z,12.10
2019-05-05T11:20:31.351Z,11.93
2019-05-05T11:22:58.527Z,9.30
2019-05-05T11:25:25.596Z,11.47
2019-05-05T11:27:54.284Z,12.97
2019-05-05T11:30:34.105Z,9.53
2019-05-05T11:33:34.865Z,10.13
2019-05-05T11:36:17.132Z,8.87
2019-05-05T11:38:46.289Z,9.30
2019-05-05T11:41:16.077Z,9.97
2019-05-05T11:43:45.034Z,6.13
2019-05-05T11:46:14.162Z,11.53
2019-05-05T11:48:43.902Z,8.70
2019-05-05T11:51:11.156Z,12.13
2019-05-05T11:53:38.651Z,11.23
2019-05-05T11:56:05.829Z,12.60
2019-05-05T11:58:34.109Z,7.53
2019-05-05T12:01:03.566Z,11.70
2019-05-05T12:03:30.569Z,14.43
2019-05-05T12:05:58.744Z,8.97
2019-05-05T12:08:25.811Z,9.87
2019-05-05T12:10:56.051Z,10.60
2019-05-05T12:13:23.350Z,9.10
2019-05-05T12:15:57.807Z,10.37
2019-05-05T12:18:24.897Z,10.63
2019-05-05T12:20:54.229Z,10.13
2019-05-05T12:23:21.440Z,10.60
2019-05-05T12:26:13.646Z,11.40
2019-05-05T12:28:47.167Z,11.03
2019-05-05T12:31:18.752Z,8.07
2019-05-05T12:33:45.808Z,8.53
2019-05-05T12:36:14.927Z,9.23
2019-05-05T12:38:43.783Z,7.70
2019-05-05T12:41:11.328Z,7.73
2019-05-05T12:43:38.500Z,11.23
2019-05-05T12:46:15.819Z,7.13
2019-05-05T12:48:43.842Z,14.37
2019-05-05T12:51:11.281Z,9.90
2019-05-05T12:53:38.339Z,9.20
2019-05-05T12:56:05.508Z,9.37
2019-05-05T12:58:33.552Z,11.03
2019-05-05T13:01:11.444Z,9.50
2019-05-05T13:03:38.519Z,15.33
2019-05-05T13:06:06.170Z,11.07
2019-05-05T13:08:34.070Z,9.73
2019-05-05T13:11:01.234Z,10.63
2019-05-05T13:13:28.288Z,10.70
2019-05-05T13:15:55.470Z,10.27
2019-05-05T13:18:24.459Z,8.57
2019-05-05T13:20:59.269Z,10.93
2019-05-05T13:23:45.947Z,8.23
2019-05-05T13:26:31.582Z,9.70
2019-05-05T13:28:59.869Z,10.37
2019-05-05T13:31:26.927Z,10.03
2019-05-05T13:33:54.836Z,9.87
2019-05-05T13:36:24.164Z,10.47
2019-05-05T13:38:52.071Z,11.27
2019-05-05T13:41:21.573Z,11.57
2019-05-05T13:43:48.840Z,6.83
2019-05-05T13:46:35.571Z,7.93
2019-05-05T13:49:34.536Z,8.87
2019-05-05T13:52:04.642Z,7.90
2019-05-05T13:54:33.542Z,6.77
2019-05-05T13:57:01.065Z,7.43
2019-05-05T13:59:28.228Z,7.20
2019-05-05T14:01:55.485Z,7.77
2019-05-05T14:04:22.755Z,6.93
2019-05-05T14:06:50.003Z,8.43
2019-05-05T14:09:17.041Z,8.83
2019-05-05T14:11:44.597Z,7.80
2019-05-05T14:14:13.791Z,8.30
2019-05-05T14:16:41.024Z,10.77
2019-05-05T14:19:08.104Z,9.73
2019-05-05T14:21:35.161Z,7.73
2019-05-05T14:24:31.496Z,10.20
2019-05-05T14:26:58.557Z,11.07
2019-05-05T14:29:43.364Z,9.03
2019-05-05T14:32:13.529Z,10.27
2019-05-05T14:34:44.162Z,8.60
2019-05-05T14:37:46.320Z,8.70
2019-05-05T14:40:14.076Z,13.30
2019-05-05T14:42:43.386Z,8.70
2019-05-05T14:45:12.695Z,12.05
2019-05-05T14:47:39.864Z,9.47
2019-05-05T14:50:07.635Z,11.30
2019-05-05T14:52:34.702Z,10.60
2019-05-05T14:55:03.784Z,9.60
2019-05-05T14:57:30.961Z,9.30
2019-05-05T14:59:58.004Z,11.13
2019-05-05T15:02:25.195Z,8.37
2019-05-05T15:04:53.943Z,8.47
2019-05-05T15:07:39.407Z,9.00
2019-05-05T15:10:35.715Z,11.20
2019-05-05T15:13:05.500Z,13.13
2019-05-05T15:15:33.761Z,10.37
2019-05-05T15:18:01.286Z,9.93
2019-05-05T15:20:28.354Z,9.30
2019-05-05T15:22:55.408Z,9.75
2019-05-05T15:25:23.493Z,7.90
2019-05-05T15:27:50.738Z,8.95
2019-05-05T15:30:19.080Z,8.70
2019-05-05T15:32:46.747Z,9.37
2019-05-05T15:35:14.383Z,9.23
2019-05-05T15:37:43.558Z,8.30
2019-05-05T15:40:11.164Z,8.53
2019-05-05T15:42:38.228Z,10.80
2019-05-05T15:45:05.496Z,7.60
2019-05-05T15:47:34.415Z,9.87
2019-05-05T15:50:01.795Z,10.00
2019-05-05T15:52:28.856Z,11.70
2019-05-05T15:54:56.284Z,8.33
2019-05-05T15:57:24.191Z,8.95
2019-05-05T15:59:51.495Z,9.60
2019-05-05T16:02:18.848Z,8.67
2019-05-05T16:04:45.903Z,10.03
2019-05-05T16:07:13.814Z,10.67
2019-05-05T16:09:41.289Z,7.90
2019-05-05T16:12:08.373Z,7.47
2019-05-05T16:14:38.256Z,11.17
2019-05-05T16:17:25.275Z,10.17
2019-05-05T16:20:01.165Z,9.63
2019-05-05T16:22:34.512Z,11.43
2019-05-05T16:25:10.715Z,12.87
2019-05-05T16:27:38.688Z,10.13
2019-05-05T16:30:08.228Z,12.27
2019-05-05T16:32:39.091Z,10.97
2019-05-05T16:35:06.987Z,6.73
2019-05-05T16:37:34.174Z,4.23
2019-05-05T16:40:03.494Z,7.03
2019-05-05T16:42:31.907Z,8.07
2019-05-05T16:44:58.983Z,6.43
2019-05-05T16:47:26.032Z,8.87
2019-05-05T16:49:53.799Z,8.23
2019-05-05T16:52:28.155Z,7.80
2019-05-05T16:55:24.440Z,10.93
2019-05-05T16:57:51.500Z,7.60
2019-05-05T17:00:21.447Z,6.47
2019-05-05T17:02:48.234Z,7.03
2019-05-05T17:05:15.503Z,11.73
2019-05-05T17:07:42.675Z,6.50
2019-05-05T17:10:11.139Z,8.83
2019-05-05T17:12:38.303Z,10.90
2019-05-05T17:15:28.156Z,8.40
2019-05-05T17:18:35.970Z,8.10
2019-05-05T17:21:24.440Z,9.97
2019-05-05T17:23:53.866Z,8.60
2019-05-05T17:26:20.845Z,9.27
2019-05-05T17:28:48.319Z,7.97
2019-05-05T17:31:15.470Z,8.10
2019-05-05T17:33:44.173Z,8.10
2019-05-05T17:36:11.683Z,9.40
2019-05-05T17:38:38.739Z,7.97
2019-05-05T17:41:16.546Z,7.93
2019-05-05T17:43:50.770Z,9.20
2019-05-05T17:46:40.071Z,9.20
2019-05-05T17:49:17.831Z,8.00
2019-05-05T17:52:04.576Z,8.00
2019-05-05T17:54:35.516Z,8.13
2019-05-05T17:57:03.526Z,8.33
2019-05-05T17:59:30.946Z,8.37
2019-05-05T18:01:59.220Z,5.67
2019-05-05T18:04:26.283Z,6.73
2019-05-05T18:07:04.113Z,9.37
2019-05-05T18:09:50.777Z,8.00
2019-05-05T18:12:25.991Z,4.67
2019-05-05T18:14:54.471Z,7.13
2019-05-05T18:17:21.540Z,7.33
2019-05-05T18:19:49.712Z,8.57
2019-05-05T18:22:16.801Z,7.73
2019-05-05T18:25:15.885Z,9.80
2019-05-05T18:27:42.948Z,6.63
2019-05-05T18:32:41.284Z,6.43
2019-05-05T18:35:08.460Z,7.40
2019-05-05T18:37:35.529Z,6.00
2019-05-05T18:40:04.122Z,9.00
2019-05-05T18:42:33.854Z,5.60
2019-05-05T18:45:04.909Z,9.23
2019-05-05T18:47:33.922Z,8.13
2019-05-05T18:50:01.291Z,8.33
2019-05-05T18:52:28.355Z,8.77
2019-05-05T18:54:55.404Z,6.07
2019-05-05T18:57:24.512Z,9.07
2019-05-05T18:59:51.599Z,11.27
2019-05-05T19:02:36.747Z,7.47
2019-05-05T19:05:14.840Z,6.77
2019-05-05T19:07:55.529Z,6.70
2019-05-05T19:10:17.682Z,5.90
2019-05-05T19:12:44.758Z,10.30
2019-05-05T19:15:13.610Z,9.93
2019-05-05T19:17:40.888Z,9.20
2019-05-05T19:20:15.859Z,12.13
2019-05-05T19:22:43.605Z,10.97
2019-05-05T19:25:16.768Z,8.83
2019-05-05T19:27:45.244Z,11.07
2019-05-05T19:30:14.811Z,8.47
2019-05-05T19:32:43.689Z,10.77
2019-05-05T19:35:11.028Z,10.03
2019-05-05T19:37:38.098Z,10.43
2019-05-05T19:40:06.170Z,12.10
2019-05-05T19:42:33.427Z,10.70
2019-05-05T19:45:00.571Z,8.80
2019-05-05T19:47:27.727Z,9.93
2019-05-05T19:50:01.033Z,8.43
2019-05-05T19:52:28.431Z,11.13
2019-05-05T19:54:55.504Z,8.73
2019-05-05T19:57:22.924Z,12.10
2019-05-05T19:59:50.375Z,10.60
2019-05-05T20:02:17.428Z,8.80
2019-05-05T20:04:45.495Z,11.50
2019-05-05T20:07:13.948Z,9.90
2019-05-05T20:09:43.392Z,9.97
2019-05-05T20:12:10.171Z,10.47
2019-05-05T20:14:37.319Z,9.73
2019-05-05T20:17:10.012Z,10.90
2019-05-05T20:19:43.972Z,12.50
2019-05-05T20:22:11.949Z,9.83
2019-05-05T20:24:39.209Z,10.33
2019-05-05T20:27:06.368Z,10.13
2019-05-05T20:29:37.075Z,9.50
2019-05-05T20:32:04.333Z,10.33
2019-05-05T20:34:37.376Z,12.53
2019-05-05T20:37:08.491Z,7.70
2019-05-05T20:39:36.205Z,10.77
2019-05-05T20:42:03.991Z,7.93
2019-05-05T20:44:34.211Z,9.13
2019-05-05T20:47:01.551Z,9.77
2019-05-05T20:49:28.707Z,12.23
2019-05-05T20:51:57.177Z,10.57
2019-05-05T20:54:24.353Z,10.87
2019-05-05T20:56:53.988Z,11.70
2019-05-05T20:59:29.996Z,11.17
2019-05-05T21:01:50.130Z,9.90
2019-05-05T21:04:17.651Z,11.80
2019-05-05T21:06:44.700Z,13.53
2019-05-05T21:09:13.775Z,11.27
2019-05-05T21:11:40.935Z,11.47
2019-05-05T21:14:08.121Z,8.93
2019-05-05T21:16:35.384Z,11.27
2019-05-05T21:19:04.335Z,14.40
2019-05-05T21:21:34.367Z,14.33
2019-05-05T21:24:03.946Z,13.83
2019-05-05T21:26:51.236Z,14.23
2019-05-05T21:29:18.409Z,15.90
2019-05-05T21:31:45.474Z,14.30
2019-05-05T21:34:14.021Z,13.30
2019-05-05T21:36:41.416Z,13.13
2019-05-05T21:39:08.873Z,15.17
2019-05-05T21:41:36.257Z,14.33
2019-05-05T21:44:03.856Z,11.40
2019-05-05T21:46:31.019Z,12.33
2019-05-05T21:48:58.071Z,14.10
2019-05-05T21:51:47.213Z,12.63
2019-05-05T21:54:45.695Z,13.40
2019-05-05T21:57:31.011Z,9.57
2019-05-05T21:59:58.990Z,12.43
2019-05-05T22:02:26.331Z,13.70
2019-05-05T22:04:54.351Z,15.47
2019-05-05T22:07:21.544Z,10.00
2019-05-05T22:09:48.599Z,12.30
2019-05-05T22:12:15.763Z,10.13
2019-05-05T22:14:44.000Z,11.83
2019-05-05T22:17:11.486Z,12.03
2019-05-05T22:19:44.530Z,11.77
2019-05-05T22:22:14.528Z,11.50
2019-05-05T22:24:41.281Z,14.20
2019-05-05T22:27:08.431Z,9.73
2019-05-05T22:29:35.836Z,15.43
2019-05-05T22:32:06.027Z,13.87
2019-05-05T22:34:33.560Z,12.63
2019-05-05T22:37:00.845Z,10.77
2019-05-05T22:39:27.911Z,14.10
2019-05-05T22:41:55.067Z,11.17
2019-05-05T22:44:24.186Z,10.27
2019-05-05T22:46:51.115Z,9.60
2019-05-05T22:49:18.307Z,11.37
2019-05-05T22:51:45.363Z,12.93
2019-05-05T22:54:15.020Z,12.10
2019-05-05T22:56:44.645Z,12.67
2019-05-05T22:59:13.780Z,12.03
2019-05-05T23:01:40.608Z,10.70
2019-05-05T23:04:24.555Z,12.87
2019-05-05T23:06:55.230Z,13.37
2019-05-05T23:09:22.631Z,13.17
2019-05-05T23:11:49.687Z,16.00
2019-05-05T23:14:28.724Z,14.17
2019-05-05T23:17:29.543Z,14.00
2019-05-05T23:20:04.832Z,14.43
2019-05-05T23:22:44.116Z,15.33
2019-05-05T23:25:18.259Z,14.90
2019-05-05T23:27:48.840Z,11.70
2019-05-05T23:30:17.036Z,16.45
2019-05-05T23:32:44.657Z,12.77
2019-05-05T23:35:11.819Z,12.47
2019-05-05T23:37:38.879Z,15.20
2019-05-05T23:40:06.739Z,13.93
2019-05-05T23:42:33.862Z,12.60
2019-05-05T23:45:01.411Z,13.17
2019-05-05T23:47:28.463Z,11.60
2019-05-05T23:49:55.536Z,11.43
2019-05-05T23:52:23.983Z,13.47
2019-05-05T23:54:51.563Z,12.20
2019-05-05T23:57:19.027Z,15.83
2019-05-05T23:59:46.492Z,11.93
